Portada
METAR-TAF:

METAR-TAF

Aeropuertos :

Southwest Minnesota Regional Airport (Marshall/Ryan Field)

Marshall, Minnesota, Estados Unidos

latitud: 44-27N, longitud: 095-49W, altitud: 359 m

Observación

El informe se hizo hace 54 minutos, a las 04:56 UTC
Viento 9 kt del oeste
Temperatura -1°C
Humedad 69%
Presión 1014 hPa
Visibilidad: 16.1 km
Cielo despejado

METAR: KMML 040456Z AUTO 28009KT 10SM CLR M01/M06 A2994 RMK AO2 SLP156 T10061056 FZRANO

Hora: 23:50 (05:50 UTC)


TAF: falta

Observaciones y pronósticos meteorológicos de más de 4000 aeropuertos (mensajes METAR y TAF).

Los puntos amarillos y rojos representan las estaciones disponibles.

Ponga el ratón en el punto deseado para ver el nombre de la estación.

Haga clic para ver las observaciones y los pronósticos meteorológicos.

Para cambiar el mapa : haga clic en los botones verdes con una cruz de color negro para hacer un zoom, en el botón verde con un guión para alejar o en las flechas verdes para mapas adyacentes.


METAR-TAF: